createdAt,value
2022-09-30T00:01:26.527Z,14.73
2022-09-30T00:03:54.167Z,16.30
2022-09-30T00:06:21.311Z,13.07
2022-09-30T00:08:47.886Z,13.82
2022-09-30T00:11:16.480Z,12.68
2022-09-30T00:13:43.848Z,18.98
2022-09-30T00:16:11.264Z,17.27
2022-09-30T00:18:38.479Z,14.80
2022-09-30T00:21:05.385Z,17.40
2022-09-30T00:23:32.199Z,14.93
2022-09-30T00:26:00.660Z,14.63
2022-09-30T00:28:27.309Z,13.57
2022-09-30T00:31:02.412Z,14.50
2022-09-30T00:33:29.166Z,13.40
2022-09-30T00:35:55.599Z,15.85
2022-09-30T00:38:21.998Z,12.27
2022-09-30T00:40:49.510Z,15.80
2022-09-30T00:43:19.200Z,15.35
2022-09-30T00:45:51.868Z,16.58
2022-09-30T00:48:21.548Z,15.23
2022-09-30T00:50:50.613Z,13.85
2022-09-30T00:53:20.670Z,19.60
2022-09-30T00:55:58.159Z,16.00
2022-09-30T00:58:46.400Z,15.45
2022-09-30T01:01:15.001Z,18.20
2022-09-30T01:03:46.050Z,13.93
2022-09-30T01:06:12.563Z,14.95
2022-09-30T01:08:39.878Z,11.68
2022-09-30T01:11:08.372Z,13.85
2022-09-30T01:13:36.367Z,12.85
2022-09-30T01:16:21.473Z,13.45
2022-09-30T01:19:03.199Z,13.23
2022-09-30T01:21:54.731Z,13.63
2022-09-30T01:24:41.069Z,13.02
2022-09-30T01:27:25.913Z,17.65
2022-09-30T01:30:17.615Z,17.88
2022-09-30T01:33:04.126Z,15.37
2022-09-30T01:35:45.242Z,17.77
2022-09-30T01:38:44.953Z,15.00
2022-09-30T01:41:25.374Z,18.42
2022-09-30T01:44:00.003Z,13.73
2022-09-30T01:46:44.391Z,17.92
2022-09-30T01:49:17.526Z,13.70
2022-09-30T01:52:29.003Z,19.20
2022-09-30T01:55:15.510Z,16.40
2022-09-30T01:58:26.517Z,18.92
2022-09-30T02:00:55.948Z,14.77
2022-09-30T02:03:33.437Z,13.43
2022-09-30T02:06:04.260Z,13.10
2022-09-30T02:08:56.715Z,14.05
2022-09-30T02:11:32.811Z,12.55
2022-09-30T02:14:17.908Z,16.63
2022-09-30T02:16:48.675Z,17.85
2022-09-30T02:19:36.974Z,12.13
2022-09-30T02:22:11.687Z,16.15
2022-09-30T02:24:38.260Z,16.13
2022-09-30T02:27:08.421Z,14.45
2022-09-30T02:29:38.924Z,21.30
2022-09-30T02:32:11.795Z,12.20
2022-09-30T02:34:41.774Z,16.88
2022-09-30T02:37:13.306Z,14.10
2022-09-30T02:39:42.634Z,16.27
2022-09-30T02:42:20.305Z,15.43
2022-09-30T02:44:49.200Z,14.57
2022-09-30T02:47:22.071Z,13.93
2022-09-30T02:50:26.887Z,16.13
2022-09-30T02:53:29.948Z,15.38
2022-09-30T02:56:26.326Z,14.45
2022-09-30T02:58:54.099Z,17.30
2022-09-30T03:01:20.554Z,22.17
2022-09-30T03:03:53.086Z,18.65
2022-09-30T03:06:21.211Z,18.13
2022-09-30T03:08:48.036Z,16.15
2022-09-30T03:11:20.184Z,16.45
2022-09-30T03:13:56.189Z,14.10
2022-09-30T03:16:40.714Z,16.48
2022-09-30T03:19:25.615Z,13.93
2022-09-30T03:22:06.334Z,10.88
2022-09-30T03:25:09.594Z,22.38
2022-09-30T03:27:49.934Z,13.50
2022-09-30T03:30:23.616Z,12.35
2022-09-30T03:33:17.287Z,11.98
2022-09-30T03:35:50.350Z,11.68
2022-09-30T03:38:29.928Z,13.32
2022-09-30T03:41:03.042Z,16.70
2022-09-30T03:43:35.021Z,16.40
2022-09-30T03:46:17.827Z,15.85
2022-09-30T03:48:45.608Z,15.40
2022-09-30T03:51:13.498Z,13.25
2022-09-30T03:53:41.137Z,10.55
2022-09-30T03:56:08.053Z,13.77
2022-09-30T03:58:37.408Z,12.60
2022-09-30T04:01:04.086Z,13.65
2022-09-30T04:03:30.552Z,16.20
2022-09-30T04:05:56.961Z,15.18
2022-09-30T04:08:23.420Z,13.32
2022-09-30T04:10:49.800Z,14.70
2022-09-30T04:13:16.395Z,14.48
2022-09-30T04:15:43.897Z,12.82
2022-09-30T04:18:16.563Z,13.05
2022-09-30T04:20:42.956Z,14.25
2022-09-30T04:23:09.338Z,15.45
2022-09-30T04:25:35.921Z,21.10
2022-09-30T04:28:02.751Z,16.75
2022-09-30T04:30:37.634Z,17.20
2022-09-30T04:33:04.144Z,13.82
2022-09-30T04:35:30.632Z,16.13
2022-09-30T04:37:57.019Z,15.55
2022-09-30T04:40:25.359Z,13.57
2022-09-30T04:42:58.177Z,20.05
2022-09-30T04:45:25.119Z,14.98
2022-09-30T04:47:51.827Z,14.25
2022-09-30T04:50:18.476Z,17.95
2022-09-30T04:53:23.362Z,11.95
2022-09-30T04:55:49.901Z,14.18
2022-09-30T04:58:18.283Z,13.75
2022-09-30T05:00:44.712Z,14.10
2022-09-30T05:03:11.149Z,13.85
2022-09-30T05:05:37.755Z,12.93
2022-09-30T05:08:04.877Z,12.73
2022-09-30T05:10:31.549Z,11.23
2022-09-30T05:12:58.227Z,12.73
2022-09-30T05:15:27.171Z,12.23
2022-09-30T05:17:53.936Z,12.70
2022-09-30T05:20:21.470Z,14.77
2022-09-30T05:22:48.232Z,15.00
2022-09-30T05:25:14.735Z,10.85
2022-09-30T05:27:41.120Z,10.85
2022-09-30T05:30:08.108Z,17.00
2022-09-30T05:32:34.528Z,13.82
2022-09-30T05:35:03.425Z,11.32
2022-09-30T05:37:29.871Z,26.10
2022-09-30T05:39:57.215Z,17.92
2022-09-30T05:42:23.620Z,14.18
2022-09-30T05:44:50.142Z,17.00
2022-09-30T05:47:17.228Z,14.95
2022-09-30T05:49:43.873Z,16.48
2022-09-30T05:52:11.893Z,15.85
2022-09-30T05:54:38.277Z,15.77
2022-09-30T05:57:04.843Z,17.38
2022-09-30T05:59:31.345Z,14.70
2022-09-30T06:02:32.121Z,17.52
2022-09-30T06:04:58.602Z,19.60
2022-09-30T06:07:24.994Z,15.60
2022-09-30T06:09:51.588Z,17.13
2022-09-30T06:12:18.025Z,23.65
2022-09-30T06:14:44.394Z,22.33
2022-09-30T06:17:10.975Z,19.10
2022-09-30T06:19:37.539Z,23.05
2022-09-30T06:22:03.996Z,23.50
2022-09-30T06:24:30.868Z,40.10
2022-09-30T06:26:57.762Z,46.00
2022-09-30T06:29:24.410Z,29.05
2022-09-30T06:31:51.099Z,24.17
2022-09-30T06:34:17.511Z,21.00
2022-09-30T06:36:43.909Z,19.70
2022-09-30T06:39:13.562Z,20.73
2022-09-30T06:42:03.629Z,18.02
2022-09-30T06:44:30.024Z,18.80
2022-09-30T06:46:56.477Z,15.25
2022-09-30T06:49:23.153Z,17.90
2022-09-30T06:51:51.258Z,17.85
2022-09-30T06:54:19.307Z,19.58
2022-09-30T06:56:47.074Z,17.75
2022-09-30T06:59:15.602Z,18.02
2022-09-30T07:01:42.881Z,24.33
2022-09-30T07:04:11.418Z,25.88
2022-09-30T07:06:38.865Z,20.42
2022-09-30T07:09:06.486Z,27.45
2022-09-30T07:11:33.104Z,28.50
2022-09-30T07:13:59.513Z,29.80
2022-09-30T07:16:26.011Z,39.60
2022-09-30T07:18:52.799Z,36.35
2022-09-30T07:21:19.208Z,34.50
2022-09-30T07:23:47.823Z,43.70
2022-09-30T07:26:20.425Z,36.03
2022-09-30T07:31:34.743Z,38.15
2022-09-30T07:34:02.713Z,33.55
2022-09-30T07:36:33.243Z,35.70
2022-09-30T07:39:06.192Z,29.83
2022-09-30T07:41:35.911Z,30.45
2022-09-30T07:44:02.926Z,28.88
2022-09-30T07:46:34.574Z,25.70
2022-09-30T07:49:04.015Z,20.08
2022-09-30T07:51:36.099Z,25.33
2022-09-30T07:54:14.569Z,25.40
2022-09-30T07:57:09.660Z,47.20
2022-09-30T07:59:31.869Z,36.78
2022-09-30T08:01:58.572Z,30.00
2022-09-30T08:04:26.220Z,29.15
2022-09-30T08:06:55.236Z,32.47
2022-09-30T08:09:23.069Z,27.67
2022-09-30T08:11:50.673Z,24.77
2022-09-30T08:14:20.564Z,23.98
2022-09-30T08:16:47.257Z,23.23
2022-09-30T08:19:16.627Z,24.50
2022-09-30T08:21:44.291Z,19.80
2022-09-30T08:24:11.427Z,24.65
2022-09-30T08:26:38.596Z,21.38
2022-09-30T08:29:05.287Z,21.67
2022-09-30T08:31:33.308Z,20.80
2022-09-30T08:34:00.290Z,19.38
2022-09-30T08:36:27.510Z,21.92
2022-09-30T08:38:54.179Z,22.25
2022-09-30T08:41:50.841Z,20.52
2022-09-30T08:44:44.054Z,19.75
2022-09-30T08:47:32.888Z,17.05
2022-09-30T08:50:16.913Z,21.13
2022-09-30T08:52:50.790Z,19.15
2022-09-30T08:55:25.843Z,19.58
2022-09-30T08:57:54.199Z,23.58
2022-09-30T09:00:22.099Z,17.75
2022-09-30T09:02:59.400Z,19.27
2022-09-30T09:05:40.862Z,18.40
2022-09-30T09:08:24.377Z,19.37
2022-09-30T09:11:07.459Z,18.83
2022-09-30T09:13:57.896Z,18.15
2022-09-30T09:16:42.915Z,18.17
2022-09-30T09:19:17.470Z,14.85
2022-09-30T09:21:54.510Z,18.10
2022-09-30T09:24:24.205Z,18.50
2022-09-30T09:26:53.340Z,13.43
2022-09-30T09:29:41.796Z,17.25
2022-09-30T09:32:17.504Z,13.98
2022-09-30T09:34:51.668Z,15.35
2022-09-30T09:37:50.439Z,17.38
2022-09-30T09:40:35.572Z,16.67
2022-09-30T09:43:19.387Z,12.00
2022-09-30T09:46:01.962Z,13.88
2022-09-30T09:48:30.673Z,14.68
2022-09-30T09:51:06.671Z,13.02
2022-09-30T09:53:41.750Z,15.40
2022-09-30T09:56:18.677Z,16.70
2022-09-30T09:59:16.985Z,10.30
2022-09-30T10:02:22.586Z,11.60
2022-09-30T10:04:59.887Z,12.45
2022-09-30T10:07:28.568Z,8.70
2022-09-30T10:10:17.529Z,8.77
2022-09-30T10:15:26.458Z,12.05
2022-09-30T10:17:55.223Z,10.27
2022-09-30T10:20:28.092Z,8.98
2022-09-30T10:23:17.591Z,12.15
2022-09-30T10:25:57.484Z,12.10
2022-09-30T10:28:26.588Z,8.98
2022-09-30T10:31:00.131Z,11.30
2022-09-30T10:33:47.478Z,11.75
2022-09-30T10:36:17.613Z,8.52
2022-09-30T10:39:02.523Z,6.15
2022-09-30T10:41:33.635Z,10.07
2022-09-30T10:44:06.396Z,7.00
2022-09-30T10:46:39.056Z,5.75
2022-09-30T10:49:37.303Z,8.77
2022-09-30T10:52:04.117Z,5.90
2022-09-30T10:54:39.886Z,6.93
2022-09-30T10:57:14.780Z,5.85
2022-09-30T10:59:42.274Z,6.78
2022-09-30T11:02:41.504Z,7.25
2022-09-30T11:05:20.979Z,5.35
2022-09-30T11:07:53.921Z,8.02
2022-09-30T11:10:47.285Z,6.38
2022-09-30T11:13:25.246Z,7.70
2022-09-30T11:15:57.767Z,7.43
2022-09-30T11:18:31.061Z,7.13
2022-09-30T11:21:00.949Z,6.45
2022-09-30T11:23:33.506Z,6.43
2022-09-30T11:26:11.657Z,6.50
2022-09-30T11:28:56.323Z,6.10
2022-09-30T11:31:31.324Z,6.47
2022-09-30T11:34:03.864Z,7.05
2022-09-30T11:36:43.153Z,4.07
2022-09-30T11:39:36.432Z,4.45
2022-09-30T11:42:26.389Z,5.00
2022-09-30T11:45:04.782Z,5.35
2022-09-30T11:47:41.525Z,7.72
2022-09-30T11:50:41.292Z,5.80
2022-09-30T11:53:26.273Z,5.10
2022-09-30T11:56:27.666Z,4.20
2022-09-30T11:58:58.661Z,4.15
2022-09-30T12:01:38.466Z,6.57
2022-09-30T12:04:14.775Z,5.25
2022-09-30T12:06:46.168Z,5.45
2022-09-30T12:09:19.042Z,9.35
2022-09-30T12:12:00.326Z,2.83
2022-09-30T12:14:33.578Z,3.22
2022-09-30T12:17:03.350Z,4.70
2022-09-30T12:19:46.579Z,4.93
2022-09-30T12:22:17.459Z,3.88
2022-09-30T12:24:47.138Z,7.00
2022-09-30T12:27:23.771Z,5.97
2022-09-30T12:30:16.886Z,3.75
2022-09-30T12:32:55.315Z,3.90
2022-09-30T12:35:40.924Z,5.00
2022-09-30T12:38:25.285Z,6.22
2022-09-30T12:41:13.578Z,6.75
2022-09-30T12:44:18.667Z,5.97
2022-09-30T12:47:08.032Z,5.30
2022-09-30T12:49:37.852Z,4.18
2022-09-30T12:52:07.820Z,4.40
2022-09-30T12:54:42.195Z,6.80
2022-09-30T12:57:09.800Z,3.90
2022-09-30T12:59:39.257Z,5.93
2022-09-30T13:02:07.412Z,4.18
2022-09-30T13:04:35.497Z,4.05
2022-09-30T13:07:01.780Z,5.93
2022-09-30T13:09:55.494Z,6.18
2022-09-30T13:12:28.270Z,8.48
2022-09-30T13:15:28.999Z,6.22
2022-09-30T13:17:55.451Z,6.38
2022-09-30T13:20:49.710Z,5.18
2022-09-30T13:23:45.516Z,4.75
2022-09-30T13:26:32.220Z,3.25
2022-09-30T13:29:01.894Z,2.75
2022-09-30T13:31:29.999Z,3.25
2022-09-30T13:34:02.391Z,4.40
2022-09-30T13:36:44.310Z,4.03
2022-09-30T13:39:21.762Z,4.05
2022-09-30T13:42:00.300Z,3.05
2022-09-30T13:44:42.287Z,2.42
2022-09-30T13:50:13.642Z,2.40
2022-09-30T13:52:41.884Z,4.07
2022-09-30T13:55:15.131Z,2.25
2022-09-30T13:58:19.042Z,2.45
2022-09-30T14:00:48.528Z,2.65
2022-09-30T14:03:32.420Z,3.40
2022-09-30T14:06:11.356Z,5.85
2022-09-30T14:09:07.131Z,2.10
2022-09-30T14:12:12.273Z,4.82
2022-09-30T14:15:08.302Z,2.33
2022-09-30T14:17:53.012Z,4.45
2022-09-30T14:20:22.875Z,2.63
2022-09-30T14:22:49.263Z,2.80
2022-09-30T14:25:18.666Z,2.53
2022-09-30T14:27:53.922Z,3.60
2022-09-30T14:30:24.684Z,3.40
2022-09-30T14:32:55.534Z,2.35
2022-09-30T14:35:24.986Z,1.92
2022-09-30T14:38:15.115Z,2.55
2022-09-30T14:40:52.029Z,2.80
2022-09-30T14:43:22.136Z,4.25
2022-09-30T14:45:53.425Z,4.85
2022-09-30T14:48:26.234Z,3.45
2022-09-30T14:51:02.149Z,6.65
2022-09-30T14:53:33.311Z,4.35
2022-09-30T14:56:01.043Z,4.10
2022-09-30T14:58:30.396Z,6.07
2022-09-30T15:01:01.557Z,4.32
2022-09-30T15:03:29.081Z,7.57
2022-09-30T15:05:56.974Z,3.55
2022-09-30T15:08:23.732Z,4.90
2022-09-30T15:10:52.051Z,8.32
2022-09-30T15:13:20.097Z,5.00
2022-09-30T15:15:46.607Z,3.92
2022-09-30T15:18:42.661Z,3.80
2022-09-30T15:21:14.096Z,5.93
2022-09-30T15:23:51.414Z,6.10
2022-09-30T15:26:22.764Z,8.95
2022-09-30T15:28:49.374Z,3.28
2022-09-30T15:31:18.955Z,4.35
2022-09-30T15:33:45.873Z,4.05
2022-09-30T15:36:17.259Z,4.20
2022-09-30T15:38:49.159Z,3.75
2022-09-30T15:41:30.762Z,3.00
2022-09-30T15:44:02.595Z,4.95
2022-09-30T15:46:38.621Z,4.43
2022-09-30T15:49:29.063Z,2.25
2022-09-30T15:52:36.226Z,3.08
2022-09-30T15:55:43.684Z,3.63
2022-09-30T15:59:06.069Z,3.88
2022-09-30T16:01:45.887Z,2.95
2022-09-30T16:04:24.908Z,2.42
2022-09-30T16:06:54.345Z,6.60
2022-09-30T16:09:25.623Z,5.82
2022-09-30T16:12:09.985Z,7.13
2022-09-30T16:14:44.021Z,2.97
2022-09-30T16:17:32.479Z,2.35
2022-09-30T16:20:00.591Z,4.45
2022-09-30T16:22:42.203Z,3.92
2022-09-30T16:25:16.159Z,5.97
2022-09-30T16:27:42.906Z,1.85
2022-09-30T16:30:17.727Z,4.18
2022-09-30T16:32:46.260Z,5.65
2022-09-30T16:35:21.189Z,4.22
2022-09-30T16:37:48.649Z,5.25
2022-09-30T16:40:24.268Z,2.78
2022-09-30T16:42:51.737Z,2.85
2022-09-30T16:45:18.415Z,2.67
2022-09-30T16:47:44.909Z,2.22
2022-09-30T16:50:24.461Z,3.72
2022-09-30T16:52:50.892Z,3.88
2022-09-30T16:55:17.428Z,4.15
2022-09-30T16:57:44.171Z,3.35
2022-09-30T17:00:19.683Z,4.07
2022-09-30T17:02:47.755Z,6.32
2022-09-30T17:05:18.527Z,3.10
2022-09-30T17:07:46.737Z,3.97
2022-09-30T17:10:29.008Z,5.15
2022-09-30T17:12:56.985Z,2.92
2022-09-30T17:15:23.614Z,3.10
2022-09-30T17:17:52.729Z,2.80
2022-09-30T17:20:20.968Z,2.03
2022-09-30T17:22:47.682Z,3.00
2022-09-30T17:25:15.195Z,2.92
2022-09-30T17:27:41.975Z,3.22
2022-09-30T17:30:09.026Z,2.13
2022-09-30T17:32:36.019Z,3.17
2022-09-30T17:35:03.046Z,2.30
2022-09-30T17:37:30.351Z,2.67
2022-09-30T17:39:56.916Z,4.88
2022-09-30T17:42:41.919Z,5.55
2022-09-30T17:45:08.948Z,3.53
2022-09-30T17:47:37.522Z,4.30
2022-09-30T17:50:04.271Z,3.65
2022-09-30T17:52:34.242Z,3.15
2022-09-30T17:55:01.177Z,5.45
2022-09-30T17:57:28.384Z,3.72
2022-09-30T17:59:54.924Z,4.75
2022-09-30T18:02:21.464Z,7.13
2022-09-30T18:04:47.940Z,8.60
2022-09-30T18:07:14.423Z,5.45
2022-09-30T18:09:40.909Z,4.00
2022-09-30T18:12:07.422Z,4.93
2022-09-30T18:14:38.505Z,5.05
2022-09-30T18:17:06.251Z,4.00
2022-09-30T18:19:33.199Z,5.45
2022-09-30T18:21:59.593Z,3.90
2022-09-30T18:24:44.766Z,6.05
2022-09-30T18:27:11.461Z,6.10
2022-09-30T18:29:38.614Z,6.88
2022-09-30T18:32:05.780Z,5.28
2022-09-30T18:34:32.630Z,4.03
2022-09-30T18:37:06.678Z,4.32
2022-09-30T18:39:38.028Z,4.43
2022-09-30T18:42:04.968Z,5.10
2022-09-30T18:44:32.559Z,4.25
2022-09-30T18:46:59.803Z,3.60
2022-09-30T18:49:26.349Z,7.10
2022-09-30T18:51:52.832Z,6.63
2022-09-30T18:54:19.310Z,7.85
2022-09-30T18:56:46.286Z,4.72
2022-09-30T18:59:18.035Z,6.18
2022-09-30T19:01:47.627Z,6.55
2022-09-30T19:04:22.279Z,5.82
2022-09-30T19:06:49.882Z,3.80
2022-09-30T19:09:16.586Z,5.78
2022-09-30T19:11:44.794Z,5.93
2022-09-30T19:14:12.484Z,6.15
2022-09-30T19:16:39.688Z,5.93
2022-09-30T19:19:10.125Z,8.50
2022-09-30T19:21:37.996Z,7.40
2022-09-30T19:24:05.953Z,6.53
2022-09-30T19:26:34.443Z,11.88
2022-09-30T19:29:00.873Z,8.38
2022-09-30T19:31:27.961Z,8.40
2022-09-30T19:33:57.056Z,8.05
2022-09-30T19:36:24.701Z,10.57
2022-09-30T19:38:55.906Z,5.72
2022-09-30T19:41:32.359Z,7.70
2022-09-30T19:44:01.986Z,8.73
2022-09-30T19:46:29.054Z,5.32
2022-09-30T19:48:56.271Z,5.10
2022-09-30T19:51:22.785Z,5.38
2022-09-30T19:54:00.830Z,3.83
2022-09-30T19:56:30.854Z,5.22
2022-09-30T19:59:00.047Z,5.07
2022-09-30T20:01:30.602Z,3.53
2022-09-30T20:03:58.229Z,5.07
2022-09-30T20:06:24.855Z,4.78
2022-09-30T20:08:53.135Z,4.82
2022-09-30T20:11:21.652Z,2.83
2022-09-30T20:14:13.370Z,2.47
2022-09-30T20:16:41.480Z,3.50
2022-09-30T20:19:08.495Z,3.30
2022-09-30T20:21:35.184Z,7.38
2022-09-30T20:24:02.459Z,3.13
2022-09-30T20:26:29.111Z,3.28
2022-09-30T20:29:00.146Z,7.47
2022-09-30T20:31:27.515Z,2.75
2022-09-30T20:33:58.717Z,5.00
2022-09-30T20:36:26.705Z,5.90
2022-09-30T20:38:54.048Z,3.60
2022-09-30T20:41:20.477Z,2.95
2022-09-30T20:43:53.667Z,4.03
2022-09-30T20:46:21.643Z,5.07
2022-09-30T20:48:48.609Z,3.20
2022-09-30T20:51:17.634Z,5.60
2022-09-30T20:53:48.894Z,4.68
2022-09-30T20:56:15.999Z,6.45
2022-09-30T20:58:42.632Z,5.28
2022-09-30T21:01:11.422Z,3.17
2022-09-30T21:03:39.004Z,5.10
2022-09-30T21:06:16.600Z,5.53
2022-09-30T21:08:43.442Z,3.00
2022-09-30T21:11:10.629Z,3.28
2022-09-30T21:13:38.339Z,4.78
2022-09-30T21:16:06.681Z,4.85
2022-09-30T21:18:33.387Z,5.07
2022-09-30T21:21:02.152Z,6.90
2022-09-30T21:23:30.272Z,3.55
2022-09-30T21:26:07.277Z,4.47
2022-09-30T21:28:33.882Z,5.07
2022-09-30T21:31:05.654Z,5.35
2022-09-30T21:33:32.125Z,3.35
2022-09-30T21:36:02.819Z,3.45
2022-09-30T21:38:29.638Z,3.88
2022-09-30T21:41:01.118Z,2.95
2022-09-30T21:43:36.242Z,4.28
2022-09-30T21:46:04.880Z,3.13
2022-09-30T21:48:33.103Z,3.03
2022-09-30T21:51:00.114Z,3.33
2022-09-30T21:53:27.515Z,4.47
2022-09-30T21:55:55.193Z,2.85
2022-09-30T21:58:36.477Z,2.83
2022-09-30T22:01:05.421Z,5.75
2022-09-30T22:03:37.401Z,4.25
2022-09-30T22:06:07.184Z,2.97
2022-09-30T22:08:36.212Z,3.63
2022-09-30T22:11:06.726Z,3.28
2022-09-30T22:13:33.198Z,3.88
2022-09-30T22:16:05.230Z,2.70
2022-09-30T22:21:04.227Z,5.60
2022-09-30T22:23:30.966Z,2.78
2022-09-30T22:25:58.617Z,3.22
2022-09-30T22:28:25.708Z,2.90
2022-09-30T22:30:52.218Z,2.78
2022-09-30T22:33:37.147Z,4.45
2022-09-30T22:36:22.220Z,3.47
2022-09-30T22:38:49.082Z,4.05
2022-09-30T22:41:17.659Z,8.25
2022-09-30T22:43:44.071Z,4.28
2022-09-30T22:46:10.597Z,4.80
2022-09-30T22:48:38.264Z,5.88
2022-09-30T22:51:05.100Z,4.80
2022-09-30T22:53:31.583Z,3.05
2022-09-30T22:55:58.007Z,3.50
2022-09-30T22:58:24.462Z,3.30
2022-09-30T23:00:57.200Z,2.95
2022-09-30T23:03:25.492Z,3.72
2022-09-30T23:05:52.900Z,5.75
2022-09-30T23:08:19.468Z,4.95
2022-09-30T23:10:49.825Z,4.88
2022-09-30T23:13:18.561Z,3.85
2022-09-30T23:15:45.168Z,4.55
2022-09-30T23:18:11.641Z,3.45
2022-09-30T23:20:40.764Z,3.47
2022-09-30T23:23:07.567Z,4.25
2022-09-30T23:25:34.422Z,3.95
2022-09-30T23:28:01.107Z,3.58
2022-09-30T23:30:27.882Z,4.80
2022-09-30T23:32:54.497Z,4.15
2022-09-30T23:35:20.981Z,4.75
2022-09-30T23:37:50.633Z,5.18
2022-09-30T23:40:17.024Z,5.50
2022-09-30T23:42:43.422Z,6.88
2022-09-30T23:45:10.570Z,4.00
2022-09-30T23:47:37.393Z,3.78
2022-09-30T23:50:04.035Z,4.13
2022-09-30T23:52:30.513Z,3.47
2022-09-30T23:54:56.960Z,3.50
2022-09-30T23:57:23.391Z,4.65
2022-09-30T23:59:49.915Z,3.58
